Time;durP1;ratioP1;P1;durP2;ratioP2;P2;SDS_P1;SDS_P2;PMS_P1;PMS_P2;Temp;Humidity;BMP_temperature;BMP_pressure;BME280_temperature;BME280_humidity;BME280_pressure;Samples;Min_cycle;Max_cycle;Signal;HPM_P1;HPM_P2
2022/12/07 00:01:10;;;;;;;4.90;1.10;;;4.60;99.90;;;;;;6217797;23;20214;-74
2022/12/07 00:03:39;;;;;;;8.70;1.80;;;4.70;99.90;;;;;;6189844;23;20080;-75
2022/12/07 00:06:07;;;;;;;6.07;1.13;;;4.60;99.90;;;;;;6191131;23;20055;-75
2022/12/07 00:08:34;;;;;;;4.22;1.00;;;5.40;99.90;;;;;;6214379;23;20047;-76
2022/12/07 00:11:12;;;;;;;7.32;1.30;;;6.00;99.90;;;;;;6190680;23;20024;-76
2022/12/07 00:13:38;;;;;;;5.25;1.10;;;4.50;99.90;;;;;;6216140;23;20016;-77
2022/12/07 00:16:10;;;;;;;4.45;1.00;;;4.80;99.90;;;;;;6190276;23;20017;-76
2022/12/07 00:18:36;;;;;;;10.57;1.20;;;5.20;99.90;;;;;;6214796;23;20022;-77
2022/12/07 00:21:16;;;;;;;5.93;1.17;;;2.20;99.90;;;;;;6190807;23;20024;-76
2022/12/07 00:23:43;;;;;;;6.72;1.00;;;4.00;99.90;;;;;;6190268;23;20012;-76
2022/12/07 00:26:16;;;;;;;7.57;1.50;;;3.90;99.90;;;;;;6214165;23;20020;-76
2022/12/07 00:28:49;;;;;;;10.60;1.52;;;4.00;99.90;;;;;;6215460;23;20043;-76
2022/12/07 00:31:17;;;;;;;14.73;1.17;;;4.20;99.90;;;;;;6216579;23;20024;-76
2022/12/07 00:33:42;;;;;;;8.40;1.15;;;4.10;99.90;;;;;;6191387;23;20367;-76
2022/12/07 00:36:13;;;;;;;9.48;1.30;;;4.50;99.90;;;;;;6163855;23;20008;-77
2022/12/07 00:38:39;;;;;;;8.02;1.30;;;4.10;99.90;;;;;;6214068;23;20020;-77
2022/12/07 00:41:17;;;;;;;9.40;1.10;;;4.10;99.90;;;;;;6212979;23;20027;-76
2022/12/07 00:43:43;;;;;;;7.32;0.90;;;4.20;99.90;;;;;;6214479;23;20020;-76
2022/12/07 00:46:10;;;;;;;9.18;1.73;;;4.10;99.90;;;;;;6213988;23;20557;-76
2022/12/07 00:48:36;;;;;;;8.40;1.30;;;5.30;99.90;;;;;;6213542;23;20020;-76
2022/12/07 00:51:02;;;;;;;5.68;1.48;;;4.10;99.90;;;;;;6191179;23;20023;-76
2022/12/07 00:53:28;;;;;;;5.32;1.50;;;4.30;99.90;;;;;;6191016;23;20059;-76
2022/12/07 00:55:55;;;;;;;9.07;1.30;;;4.30;99.90;;;;;;6188171;23;20009;-76
2022/12/07 00:58:24;;;;;;;6.55;1.42;;;4.90;99.90;;;;;;6190302;23;20020;-76
2022/12/07 01:00:50;;;;;;;6.20;1.20;;;4.40;99.90;;;;;;6213941;23;20289;-76
2022/12/07 01:03:16;;;;;;;8.40;2.25;;;5.80;99.90;;;;;;6215492;23;20055;-77
2022/12/07 01:05:53;;;;;;;4.63;1.20;;;4.40;99.90;;;;;;6189638;23;20036;-76
2022/12/07 01:08:19;;;;;;;6.22;1.33;;;4.50;99.90;;;;;;6215826;23;20012;-75
2022/12/07 01:10:45;;;;;;;2.65;1.00;;;4.60;99.90;;;;;;6190665;23;20035;-76
2022/12/07 01:13:11;;;;;;;10.40;2.00;;;4.70;99.90;;;;;;6213275;23;20016;-77
2022/12/07 01:15:44;;;;;;;5.40;1.38;;;4.80;99.90;;;;;;6164081;23;20122;-75
2022/12/07 01:18:10;;;;;;;6.18;0.98;;;4.90;99.90;;;;;;6213968;23;20251;-75
2022/12/07 01:20:36;;;;;;;5.88;1.27;;;4.80;99.90;;;;;;6215452;23;20024;-75
2022/12/07 01:23:02;;;;;;;5.05;1.00;;;4.70;99.90;;;;;;6215925;23;20020;-75
2022/12/07 01:25:28;;;;;;;7.63;1.40;;;5.00;99.90;;;;;;6187802;23;20028;-76
2022/12/07 01:27:54;;;;;;;6.47;2.03;;;5.20;99.90;;;;;;6215901;23;20027;-76
2022/12/07 01:30:19;;;;;;;8.95;1.20;;;4.40;99.90;;;;;;6190638;23;20446;-76
2022/12/07 01:32:45;;;;;;;9.65;1.48;;;4.30;99.90;;;;;;6214378;23;20047;-76
2022/12/07 01:35:11;;;;;;;4.57;0.95;;;4.20;99.90;;;;;;6188434;23;20390;-76
2022/12/07 01:37:38;;;;;;;7.03;1.20;;;4.90;99.90;;;;;;6240536;23;20051;-76
2022/12/07 01:40:07;;;;;;;6.70;0.90;;;4.00;99.90;;;;;;6215373;23;20021;-76
2022/12/07 01:42:33;;;;;;;5.22;0.90;;;3.90;99.90;;;;;;6213176;23;20072;-76
2022/12/07 01:45:18;;;;;;;3.60;0.85;;;3.90;99.90;;;;;;6215457;23;20013;-76
2022/12/07 01:47:56;;;;;;;2.17;0.90;;;4.10;99.90;;;;;;6214976;23;20020;-76
2022/12/07 01:50:26;;;;;;;7.35;0.75;;;4.10;99.90;;;;;;6214847;23;20183;-75
2022/12/07 01:52:53;;;;;;;4.93;0.90;;;4.50;99.90;;;;;;6189876;23;20192;-76
2022/12/07 01:55:20;;;;;;;4.25;0.93;;;4.70;99.90;;;;;;6190819;23;20043;-76
2022/12/07 01:57:50;;;;;;;2.75;0.95;;;4.70;99.90;;;;;;6189151;23;20016;-75
2022/12/07 02:00:17;;;;;;;6.15;0.80;;;4.50;99.90;;;;;;6213641;23;20023;-77
2022/12/07 02:03:03;;;;;;;5.03;0.90;;;4.50;99.90;;;;;;6213280;23;20017;-77
2022/12/07 02:05:29;;;;;;;4.65;1.33;;;4.70;99.90;;;;;;6214867;23;20036;-76
2022/12/07 02:07:57;;;;;;;7.03;1.30;;;4.40;99.90;;;;;;6191655;23;20039;-76
2022/12/07 02:10:28;;;;;;;2.22;0.65;;;5.80;99.90;;;;;;6216860;23;20335;-77
2022/12/07 02:12:59;;;;;;;2.08;0.63;;;4.20;99.90;;;;;;6192701;23;20047;-76
2022/12/07 02:15:52;;;;;;;5.07;1.05;;;4.30;99.90;;;;;;6217210;23;20016;-75
2022/12/07 02:18:49;;;;;;;2.90;0.50;;;4.20;99.90;;;;;;6191315;23;20018;-75
2022/12/07 02:21:46;;;;;;;1.60;0.70;;;3.80;99.90;;;;;;6194970;23;20043;-76
2022/12/07 02:24:49;;;;;;;2.83;0.70;;;3.60;99.90;;;;;;6218833;23;20023;-75
2022/12/07 02:27:42;;;;;;;3.30;1.27;;;3.50;99.90;;;;;;6216600;23;20031;-74
2022/12/07 02:30:13;;;;;;;5.47;0.70;;;3.50;99.90;;;;;;6214644;23;20025;-74
2022/12/07 02:32:42;;;;;;;5.78;0.85;;;4.20;99.90;;;;;;6217692;23;20071;-73
2022/12/07 02:35:25;;;;;;;4.13;1.13;;;3.30;99.90;;;;;;6192991;23;20051;-76
2022/12/07 02:37:50;;;;;;;5.00;0.73;;;3.00;99.90;;;;;;6192901;23;20475;-76
2022/12/07 02:40:25;;;;;;;6.40;0.88;;;3.10;99.90;;;;;;6216304;23;20020;-77
2022/12/07 02:43:01;;;;;;;7.07;1.02;;;3.20;99.90;;;;;;6216615;23;20020;-77
2022/12/07 02:45:29;;;;;;;2.75;1.00;;;3.50;99.90;;;;;;6191381;23;20215;-77
2022/12/07 02:47:59;;;;;;;8.32;1.67;;;3.40;99.90;;;;;;6217050;23;20020;-77
2022/12/07 02:50:25;;;;;;;6.05;0.98;;;3.60;99.90;;;;;;6190493;23;20016;-77
2022/12/07 02:52:51;;;;;;;3.85;0.80;;;4.30;99.90;;;;;;6216074;23;20059;-77
2022/12/07 02:55:21;;;;;;;4.47;0.93;;;4.20;99.90;;;;;;6165008;23;20064;-77
2022/12/07 02:58:33;;;;;;;4.45;0.93;;;4.60;99.90;;;;;;6215951;23;20055;-77
2022/12/07 03:01:31;;;;;;;9.65;1.17;;;3.80;99.90;;;;;;6147588;23;20016;-78
2022/12/07 03:04:20;;;;;;;9.85;1.30;;;4.10;99.90;;;;;;6187497;23;20016;-78
2022/12/07 03:06:56;;;;;;;6.90;1.10;;;4.00;99.90;;;;;;6182598;23;20338;-75
2022/12/07 03:09:32;;;;;;;2.95;0.90;;;3.80;99.90;;;;;;6216184;23;20072;-77
2022/12/07 03:12:18;;;;;;;3.38;0.93;;;5.20;99.90;;;;;;6215558;23;20076;-75
2022/12/07 03:14:57;;;;;;;7.40;1.27;;;4.20;99.90;;;;;;6216228;23;20094;-76
2022/12/07 03:17:27;;;;;;;4.57;1.10;;;5.30;99.90;;;;;;6216587;23;20020;-75
2022/12/07 03:19:58;;;;;;;7.60;1.60;;;4.30;99.90;;;;;;6216635;23;20027;-75
2022/12/07 03:22:29;;;;;;;5.85;0.85;;;4.70;99.90;;;;;;6216171;23;20019;-75
2022/12/07 03:24:58;;;;;;;7.75;1.73;;;4.20;99.90;;;;;;6190126;23;20024;-76
2022/12/07 03:27:58;;;;;;;7.70;1.05;;;4.60;99.90;;;;;;6216007;23;20019;-75
2022/12/07 03:30:34;;;;;;;2.88;0.77;;;5.80;99.90;;;;;;6185413;23;20044;-76
2022/12/07 03:33:06;;;;;;;4.55;1.20;;;5.60;99.90;;;;;;6216902;23;20016;-77
2022/12/07 03:35:46;;;;;;;11.13;1.00;;;4.30;99.90;;;;;;6216811;23;20008;-75
2022/12/07 03:38:38;;;;;;;10.18;2.45;;;4.20;99.90;;;;;;6216353;23;20012;-73
2022/12/07 03:41:24;;;;;;;8.73;1.30;;;4.00;99.90;;;;;;6192389;23;20055;-74
2022/12/07 03:43:50;;;;;;;3.63;1.10;;;4.40;99.90;;;;;;6214109;23;20567;-75
2022/12/07 03:46:45;;;;;;;4.22;0.80;;;4.20;99.90;;;;;;6190280;23;20028;-75
2022/12/07 03:49:37;;;;;;;4.97;1.08;;;4.30;99.90;;;;;;6216934;23;20012;-76
2022/12/07 03:52:28;;;;;;;8.02;1.35;;;3.80;99.90;;;;;;6191192;23;20017;-74
2022/12/07 03:55:12;;;;;;;4.65;0.80;;;4.50;99.90;;;;;;6193221;23;20009;-76
2022/12/07 03:57:40;;;;;;;8.05;1.00;;;4.40;99.90;;;;;;6191570;23;20008;-75
2022/12/07 04:00:07;;;;;;;6.95;1.20;;;4.70;99.90;;;;;;6217531;23;20017;-76
2022/12/07 04:02:34;;;;;;;10.25;1.75;;;4.50;99.90;;;;;;6191887;23;20307;-75
2022/12/07 04:05:00;;;;;;;5.18;0.93;;;4.40;99.90;;;;;;6163470;23;20071;-75
2022/12/07 04:07:26;;;;;;;6.40;1.35;;;4.20;99.90;;;;;;6189649;23;20020;-76
2022/12/07 04:09:54;;;;;;;3.08;1.00;;;4.20;99.90;;;;;;6191623;23;20094;-76
2022/12/07 04:12:20;;;;;;;5.40;1.60;;;4.20;99.90;;;;;;6216800;23;20271;-75
2022/12/07 04:14:46;;;;;;;3.67;0.70;;;3.90;99.90;;;;;;6216478;23;20015;-75
2022/12/07 04:17:12;;;;;;;6.10;1.25;;;3.90;99.90;;;;;;6216641;23;20068;-75
2022/12/07 04:19:38;;;;;;;1.80;0.60;;;3.80;99.90;;;;;;6217648;23;20350;-74
2022/12/07 04:22:04;;;;;;;5.45;0.57;;;3.70;99.90;;;;;;6215627;23;20305;-73
2022/12/07 04:24:30;;;;;;;2.83;0.52;;;3.70;99.90;;;;;;6168048;23;20012;-75
2022/12/07 04:26:56;;;;;;;6.50;0.80;;;3.50;99.90;;;;;;6216728;23;20027;-76
2022/12/07 04:29:22;;;;;;;6.28;0.80;;;4.50;99.90;;;;;;6217282;23;20009;-76
2022/12/07 04:31:48;;;;;;;5.35;0.90;;;3.30;99.90;;;;;;6217063;23;20013;-76
2022/12/07 04:34:14;;;;;;;3.67;0.60;;;4.50;99.90;;;;;;6218043;23;20016;-77
2022/12/07 04:36:40;;;;;;;4.30;0.70;;;5.00;99.90;;;;;;6191814;23;20017;-77
2022/12/07 04:39:09;;;;;;;9.60;0.88;;;3.40;99.90;;;;;;6192631;23;20040;-77
2022/12/07 04:41:35;;;;;;;4.65;0.95;;;3.80;99.90;;;;;;6218364;23;20063;-78
2022/12/07 04:44:02;;;;;;;10.85;1.83;;;3.80;99.90;;;;;;6167820;23;20012;-76
2022/12/07 04:46:30;;;;;;;9.48;1.30;;;4.50;99.90;;;;;;6215064;23;20072;-76
2022/12/07 04:48:56;;;;;;;6.55;0.85;;;5.30;99.90;;;;;;6215759;23;20020;-76
2022/12/07 04:51:24;;;;;;;7.13;1.20;;;4.30;99.90;;;;;;6190737;23;20385;-76
2022/12/07 04:53:51;;;;;;;7.32;1.00;;;4.20;99.90;;;;;;6214957;23;20340;-77
2022/12/07 04:56:18;;;;;;;4.70;1.15;;;4.30;99.90;;;;;;6189587;23;20017;-76
2022/12/07 04:58:45;;;;;;;3.95;1.30;;;4.10;99.90;;;;;;6216844;23;20319;-78
2022/12/07 05:01:11;;;;;;;7.20;1.17;;;5.60;99.90;;;;;;6192478;23;20019;-76
2022/12/07 05:03:37;;;;;;;4.28;0.88;;;4.00;99.90;;;;;;6166854;23;20016;-77
2022/12/07 05:06:04;;;;;;;4.32;0.80;;;3.80;99.90;;;;;;6189748;23;20024;-76
2022/12/07 05:08:31;;;;;;;3.20;0.93;;;4.00;99.90;;;;;;6216025;23;20020;-77
2022/12/07 05:10:57;;;;;;;2.53;0.65;;;3.90;99.90;;;;;;6215432;23;20016;-75
2022/12/07 05:13:24;;;;;;;4.97;1.00;;;5.50;99.90;;;;;;6217877;23;20052;-80
2022/12/07 05:15:49;;;;;;;4.32;1.40;;;3.70;99.90;;;;;;6189802;23;20024;-76
2022/12/07 05:18:15;;;;;;;4.63;0.70;;;3.50;99.90;;;;;;6215077;23;20307;-76
2022/12/07 05:20:42;;;;;;;3.13;0.57;;;4.10;99.90;;;;;;6190442;23;20090;-77
2022/12/07 05:23:08;;;;;;;2.78;0.70;;;2.90;99.90;;;;;;6189518;23;20020;-76
2022/12/07 05:25:33;;;;;;;3.97;0.98;;;3.10;99.90;;;;;;6217387;23;20328;-76
2022/12/07 05:27:59;;;;;;;4.47;0.70;;;4.00;99.90;;;;;;6166019;23;20012;-77
2022/12/07 05:30:25;;;;;;;4.32;0.70;;;4.30;99.90;;;;;;6218557;23;20338;-77
2022/12/07 05:32:51;;;;;;;4.00;0.77;;;4.30;99.90;;;;;;6217196;23;20092;-76
2022/12/07 05:35:18;;;;;;;4.30;0.93;;;4.40;99.90;;;;;;6191850;23;20211;-78
2022/12/07 05:37:44;;;;;;;5.10;0.90;;;5.00;99.90;;;;;;6191660;23;20067;-78
2022/12/07 05:40:11;;;;;;;4.70;1.05;;;3.30;99.90;;;;;;6189105;23;20016;-77
2022/12/07 05:42:37;;;;;;;8.75;1.85;;;3.20;99.90;;;;;;6190661;23;20051;-77
2022/12/07 05:45:03;;;;;;;5.35;1.05;;;3.10;99.90;;;;;;6189180;23;20218;-78
2022/12/07 05:47:29;;;;;;;2.90;0.70;;;3.30;99.90;;;;;;6188820;23;20016;-77
2022/12/07 05:49:55;;;;;;;4.15;1.70;;;3.40;99.90;;;;;;6190396;23;20021;-78
2022/12/07 05:52:20;;;;;;;2.30;0.82;;;5.10;99.90;;;;;;6192282;23;20025;-78
2022/12/07 05:54:46;;;;;;;8.02;1.17;;;3.70;99.90;;;;;;6216936;23;20020;-78
2022/12/07 05:57:12;;;;;;;6.22;1.40;;;5.30;99.90;;;;;;6217584;23;20044;-77
2022/12/07 05:59:37;;;;;;;4.65;1.15;;;3.40;99.90;;;;;;6217175;23;20020;-78
2022/12/07 06:02:09;;;;;;;6.20;1.77;;;3.30;99.90;;;;;;6165081;23;20020;-75
2022/12/07 06:04:37;;;;;;;5.47;1.40;;;3.30;99.90;;;;;;6218102;23;20038;-74
2022/12/07 06:07:03;;;;;;;6.60;1.42;;;3.10;99.90;;;;;;6218214;23;20012;-76
2022/12/07 06:09:29;;;;;;;7.20;1.65;;;4.00;99.90;;;;;;6216179;23;20458;-76
2022/12/07 06:14:41;;;;;;;5.32;1.23;;;3.10;99.90;;;;;;6217563;23;20043;-75
2022/12/07 06:17:07;;;;;;;9.05;1.25;;;4.20;99.90;;;;;;6217792;23;20048;-75
2022/12/07 06:19:33;;;;;;;7.72;1.13;;;3.30;99.90;;;;;;6217813;23;20028;-75
2022/12/07 06:21:59;;;;;;;6.47;1.13;;;4.50;99.90;;;;;;6217980;23;20047;-76
2022/12/07 06:24:25;;;;;;;3.80;1.00;;;4.00;99.90;;;;;;6168538;23;20012;-77
2022/12/07 06:26:51;;;;;;;4.15;1.20;;;3.80;99.90;;;;;;6217360;23;20013;-77
2022/12/07 06:29:17;;;;;;;8.05;1.92;;;4.20;99.90;;;;;;6191349;23;20630;-77
2022/12/07 06:31:43;;;;;;;3.53;1.00;;;3.90;99.90;;;;;;6192439;23;20024;-77
2022/12/07 06:34:12;;;;;;;8.55;1.30;;;3.70;99.90;;;;;;6192261;23;20036;-76
2022/12/07 06:36:37;;;;;;;4.70;0.90;;;4.90;99.90;;;;;;6217024;23;20047;-77
2022/12/07 06:39:04;;;;;;;7.32;1.33;;;3.90;99.90;;;;;;6217158;23;20656;-76
2022/12/07 06:41:30;;;;;;;8.40;1.63;;;4.40;99.90;;;;;;6168360;23;20048;-80
2022/12/07 06:43:55;;;;;;;5.05;0.85;;;4.80;99.90;;;;;;6191394;23;20029;-78
2022/12/07 06:46:22;;;;;;;2.85;0.80;;;4.00;99.90;;;;;;6168140;23;20012;-78
2022/12/07 06:48:47;;;;;;;9.55;1.17;;;3.50;99.90;;;;;;6192184;23;20076;-77
2022/12/07 06:51:13;;;;;;;4.13;0.70;;;3.40;99.90;;;;;;6166366;23;20023;-78
2022/12/07 06:53:42;;;;;;;4.55;1.23;;;3.50;99.90;;;;;;6169441;23;20356;-78
2022/12/07 06:56:08;;;;;;;3.70;1.25;;;4.10;99.90;;;;;;6216571;23;20012;-76
2022/12/07 06:58:33;;;;;;;4.22;1.02;;;4.00;99.90;;;;;;6191931;23;20067;-77
2022/12/07 07:00:59;;;;;;;3.10;0.80;;;3.50;99.90;;;;;;6190332;23;20075;-77
2022/12/07 07:03:25;;;;;;;5.18;0.82;;;4.20;99.90;;;;;;6215276;23;20020;-77
2022/12/07 07:05:50;;;;;;;4.47;1.77;;;3.00;99.90;;;;;;6190819;23;20043;-77
2022/12/07 07:08:16;;;;;;;3.38;0.77;;;4.20;99.90;;;;;;6192231;23;20083;-77
2022/12/07 07:10:42;;;;;;;10.43;1.40;;;2.70;99.90;;;;;;6192467;23;20009;-75
2022/12/07 07:13:08;;;;;;;5.82;1.20;;;3.20;99.90;;;;;;6215762;23;20016;-75
2022/12/07 07:15:34;;;;;;;1.85;0.70;;;3.20;99.90;;;;;;6220808;23;20015;-75
2022/12/07 07:18:00;;;;;;;1.63;1.00;;;4.10;99.90;;;;;;6216568;23;20016;-75
2022/12/07 07:20:26;;;;;;;4.25;0.90;;;3.90;99.90;;;;;;6191820;23;20070;-75
2022/12/07 07:22:54;;;;;;;3.20;1.10;;;4.60;99.90;;;;;;6216729;23;20070;-76
2022/12/07 07:25:20;;;;;;;8.93;1.40;;;3.70;99.90;;;;;;6192228;23;20009;-74
2022/12/07 07:27:45;;;;;;;5.25;1.25;;;3.40;99.90;;;;;;6216146;23;20016;-75
2022/12/07 07:30:12;;;;;;;4.03;1.55;;;3.60;99.90;;;;;;6193017;23;20027;-75
2022/12/07 07:32:37;;;;;;;4.78;1.48;;;3.80;99.90;;;;;;6217168;23;20012;-76
2022/12/07 07:35:03;;;;;;;8.50;1.13;;;3.50;99.90;;;;;;6217282;23;20015;-76
2022/12/07 07:37:29;;;;;;;3.35;0.90;;;3.50;99.90;;;;;;6217892;23;20023;-76
2022/12/07 07:39:55;;;;;;;5.28;0.73;;;3.80;99.90;;;;;;6168075;23;20076;-75
2022/12/07 07:42:21;;;;;;;4.55;1.05;;;3.90;99.90;;;;;;6218205;23;20059;-74
2022/12/07 07:44:46;;;;;;;3.83;0.85;;;3.60;99.90;;;;;;6220152;23;20333;-76
2022/12/07 07:47:12;;;;;;;5.72;0.80;;;3.90;99.90;;;;;;6214015;23;20075;-74
2022/12/07 07:49:38;;;;;;;3.08;0.90;;;4.90;99.90;;;;;;6190129;23;20019;-74
2022/12/07 07:52:05;;;;;;;6.10;0.90;;;4.60;99.90;;;;;;6189942;23;20103;-77
2022/12/07 07:54:31;;;;;;;3.72;1.00;;;3.60;99.90;;;;;;6214388;23;20016;-76
2022/12/07 07:56:57;;;;;;;5.65;1.05;;;4.10;99.90;;;;;;6213000;23;20027;-78
2022/12/07 07:59:23;;;;;;;3.65;1.02;;;4.90;99.90;;;;;;6212523;23;20055;-76
2022/12/07 08:01:49;;;;;;;7.97;1.08;;;4.00;99.90;;;;;;6213833;23;20021;-76
2022/12/07 08:04:14;;;;;;;4.85;1.17;;;4.20;99.90;;;;;;6166455;23;20203;-76
2022/12/07 08:06:41;;;;;;;5.30;1.20;;;3.90;99.90;;;;;;6191325;23;20216;-78
2022/12/07 08:09:08;;;;;;;5.28;1.00;;;3.80;99.90;;;;;;6215709;23;20203;-77
2022/12/07 08:11:34;;;;;;;6.22;1.30;;;3.80;99.90;;;;;;6192456;23;20367;-76
2022/12/07 08:14:00;;;;;;;5.53;1.05;;;4.40;99.90;;;;;;6191519;23;20017;-76
2022/12/07 08:16:25;;;;;;;4.88;0.85;;;3.90;99.90;;;;;;6191991;23;20017;-77
2022/12/07 08:18:51;;;;;;;2.88;0.90;;;3.70;99.90;;;;;;6190982;23;20090;-76
2022/12/07 08:21:17;;;;;;;4.53;1.30;;;3.80;99.90;;;;;;6187976;23;20036;-77
2022/12/07 08:23:43;;;;;;;8.70;3.83;;;4.80;99.90;;;;;;6214626;23;20576;-77
2022/12/07 08:26:11;;;;;;;7.78;3.70;;;3.60;99.90;;;;;;6190088;23;20063;-75
2022/12/07 08:28:36;;;;;;;6.53;2.78;;;3.70;99.90;;;;;;6165923;23;20068;-75
2022/12/07 08:31:11;;;;;;;6.43;1.75;;;3.50;99.90;;;;;;6164989;23;20276;-75
2022/12/07 08:33:37;;;;;;;6.57;1.38;;;3.80;99.90;;;;;;6214604;23;20021;-75
2022/12/07 08:36:06;;;;;;;7.10;1.70;;;3.70;99.90;;;;;;6189425;23;20016;-75
2022/12/07 08:38:31;;;;;;;4.85;1.60;;;4.00;99.90;;;;;;6189459;23;20020;-75
2022/12/07 08:40:58;;;;;;;18.50;8.40;;;4.00;99.90;;;;;;6164075;23;20024;-76
2022/12/07 08:43:24;;;;;;;14.32;5.63;;;3.90;99.90;;;;;;6214840;23;20012;-75
2022/12/07 08:46:05;;;;;;;9.02;2.45;;;3.80;99.90;;;;;;6166638;23;20012;-74
2022/12/07 08:48:31;;;;;;;8.52;1.35;;;4.00;99.90;;;;;;6189912;23;20092;-72
2022/12/07 08:50:57;;;;;;;5.93;1.33;;;4.10;99.90;;;;;;6185491;23;20051;-73
2022/12/07 08:53:23;;;;;;;7.30;1.45;;;4.00;99.90;;;;;;6188372;23;20016;-72
2022/12/07 08:55:49;;;;;;;10.50;1.50;;;4.30;99.90;;;;;;6162112;23;20017;-72
2022/12/07 08:58:15;;;;;;;6.28;1.40;;;4.20;99.90;;;;;;6213823;23;20044;-73
2022/12/07 09:00:41;;;;;;;6.97;1.20;;;4.30;99.90;;;;;;6187536;23;20060;-72
2022/12/07 09:03:07;;;;;;;6.88;1.27;;;4.50;99.90;;;;;;6213067;23;20013;-73
2022/12/07 09:05:34;;;;;;;4.00;0.88;;;4.50;99.90;;;;;;6162958;23;20426;-74
2022/12/07 09:08:01;;;;;;;6.15;1.23;;;4.70;99.90;;;;;;6213211;23;20684;-75
2022/12/07 09:10:29;;;;;;;9.45;1.67;;;4.50;99.90;;;;;;6187657;23;20008;-74
2022/12/07 09:12:55;;;;;;;6.63;1.10;;;4.90;99.90;;;;;;6188087;23;20008;-75
2022/12/07 09:15:20;;;;;;;6.00;1.15;;;4.80;99.90;;;;;;6212399;23;20203;-75
2022/12/07 09:17:52;;;;;;;5.18;1.10;;;5.00;99.90;;;;;;6213667;23;20714;-74
2022/12/07 09:20:17;;;;;;;13.88;1.35;;;5.10;99.90;;;;;;6163570;23;20020;-74
2022/12/07 09:22:43;;;;;;;6.78;1.20;;;5.80;99.90;;;;;;6212591;23;20068;-76
2022/12/07 09:25:09;;;;;;;3.22;0.90;;;5.70;99.90;;;;;;6187145;23;20103;-73
2022/12/07 09:27:35;;;;;;;8.77;1.63;;;5.80;99.90;;;;;;6189136;23;20020;-73
2022/12/07 09:30:03;;;;;;;4.93;1.10;;;6.20;99.90;;;;;;6188186;23;20402;-74
2022/12/07 09:32:28;;;;;;;7.35;1.23;;;6.60;99.90;;;;;;6212126;23;20021;-73
2022/12/07 09:34:54;;;;;;;6.47;1.30;;;7.10;99.90;;;;;;6213031;23;20227;-75
2022/12/07 09:37:20;;;;;;;5.32;1.10;;;7.40;99.90;;;;;;6186478;23;20016;-72
2022/12/07 09:39:46;;;;;;;5.32;1.27;;;7.90;99.90;;;;;;6213870;23;20018;-73
2022/12/07 09:42:30;;;;;;;7.75;1.15;;;7.70;99.90;;;;;;6212628;23;20019;-73
2022/12/07 09:44:56;;;;;;;5.40;1.20;;;7.00;99.90;;;;;;6212686;23;20020;-74
2022/12/07 09:47:22;;;;;;;4.63;0.93;;;6.60;99.90;;;;;;6212596;23;20020;-72
2022/12/07 09:49:48;;;;;;;1.98;0.80;;;6.10;99.90;;;;;;6212231;23;20023;-73
2022/12/07 09:52:26;;;;;;;4.13;1.00;;;5.90;99.90;;;;;;6164536;23;20023;-74
2022/12/07 09:54:52;;;;;;;1.45;0.82;;;5.80;99.90;;;;;;6210043;23;20001;-72
2022/12/07 09:57:24;;;;;;;5.03;0.93;;;5.70;99.90;;;;;;6211902;23;20009;-74
2022/12/07 09:59:50;;;;;;;3.40;0.90;;;5.70;99.90;;;;;;6215467;23;20024;-71
2022/12/07 10:02:37;;;;;;;5.80;1.40;;;5.90;99.90;;;;;;6189842;23;20052;-73
2022/12/07 10:05:11;;;;;;;3.70;0.80;;;6.20;99.90;;;;;;6215741;23;20012;-74
2022/12/07 10:07:37;;;;;;;1.65;1.23;;;6.40;99.90;;;;;;6191069;23;20207;-74
2022/12/07 10:10:14;;;;;;;4.80;1.63;;;6.50;99.90;;;;;;6190062;23;20020;-74
2022/12/07 10:12:53;;;;;;;5.57;0.98;;;6.80;99.90;;;;;;6215166;23;20240;-72
2022/12/07 10:15:19;;;;;;;4.35;1.50;;;6.40;99.90;;;;;;6215551;23;20009;-73
2022/12/07 10:17:51;;;;;;;4.03;0.95;;;6.20;99.90;;;;;;6190649;23;20017;-71
2022/12/07 10:20:19;;;;;;;4.38;1.00;;;6.30;99.90;;;;;;6214842;23;20044;-73
2022/12/07 10:23:00;;;;;;;3.83;0.93;;;6.50;99.90;;;;;;6190434;23;20020;-73
2022/12/07 10:25:32;;;;;;;3.63;0.85;;;6.30;99.90;;;;;;6216245;23;20016;-73
2022/12/07 10:28:01;;;;;;;3.42;0.93;;;6.30;99.90;;;;;;6190900;23;20041;-73
2022/12/07 10:30:27;;;;;;;5.00;0.98;;;6.20;99.90;;;;;;6216013;23;20008;-73
2022/12/07 10:32:53;;;;;;;4.63;0.80;;;6.30;99.90;;;;;;6216423;23;20068;-74
2022/12/07 10:35:26;;;;;;;7.18;0.88;;;6.20;99.90;;;;;;6216209;23;20011;-74
2022/12/07 10:37:53;;;;;;;6.40;0.90;;;6.20;99.90;;;;;;6218156;23;20067;-73
2022/12/07 10:40:29;;;;;;;3.92;1.20;;;6.30;99.90;;;;;;6192410;23;20008;-74
2022/12/07 10:43:24;;;;;;;4.97;1.17;;;6.20;99.90;;;;;;6218390;23;20036;-73
2022/12/07 10:45:50;;;;;;;4.95;1.05;;;6.20;99.90;;;;;;6179869;23;20223;-74
2022/12/07 10:48:54;;;;;;;4.43;1.10;;;6.30;99.90;;;;;;6191690;23;20040;-74
2022/12/07 10:51:47;;;;;;;2.60;0.95;;;6.30;99.90;;;;;;6217272;23;20000;-74
2022/12/07 10:54:25;;;;;;;8.32;1.77;;;6.40;99.90;;;;;;6217511;23;20023;-76
2022/12/07 10:57:19;;;;;;;3.90;1.23;;;6.40;99.90;;;;;;6190725;23;20187;-74
2022/12/07 10:59:45;;;;;;;6.30;1.00;;;6.50;99.90;;;;;;6215991;23;20021;-73
2022/12/07 11:02:49;;;;;;;6.32;1.00;;;6.50;99.90;;;;;;6191943;23;20295;-74
2022/12/07 11:05:43;;;;;;;3.78;0.90;;;6.50;99.90;;;;;;6161079;23;20059;-72
2022/12/07 11:08:30;;;;;;;3.65;0.80;;;6.30;99.90;;;;;;6214979;23;20012;-74
2022/12/07 11:10:58;;;;;;;6.45;1.00;;;5.90;99.90;;;;;;6214500;23;20023;-72
2022/12/07 11:13:27;;;;;;;3.40;0.80;;;5.70;99.90;;;;;;6215918;23;20012;-75
2022/12/07 11:16:02;;;;;;;1.85;0.52;;;5.60;99.90;;;;;;6188638;23;20078;-74
2022/12/07 11:18:44;;;;;;;4.05;0.60;;;5.70;99.90;;;;;;6216304;23;20070;-75
2022/12/07 11:21:25;;;;;;;2.90;1.30;;;5.40;99.90;;;;;;6192207;23;20027;-74
2022/12/07 11:24:12;;;;;;;2.78;0.75;;;5.40;99.90;;;;;;6189419;23;20016;-72
2022/12/07 11:26:46;;;;;;;8.18;0.95;;;5.40;99.90;;;;;;6213472;23;20054;-75
2022/12/07 11:29:43;;;;;;;3.92;0.68;;;5.30;99.90;;;;;;6217520;23;20013;-75
2022/12/07 11:32:37;;;;;;;2.85;0.77;;;5.20;99.90;;;;;;6191356;23;20009;-75
2022/12/07 11:35:15;;;;;;;2.17;0.80;;;5.30;99.90;;;;;;6188043;23;20016;-75
2022/12/07 11:37:41;;;;;;;2.85;0.65;;;5.40;99.90;;;;;;6240365;23;20236;-75
2022/12/07 11:40:21;;;;;;;2.38;0.70;;;5.50;99.90;;;;;;6192012;23;20020;-74
2022/12/07 11:43:20;;;;;;;3.05;0.90;;;5.50;99.90;;;;;;6192194;23;20021;-74
2022/12/07 11:45:53;;;;;;;3.63;1.00;;;5.70;99.90;;;;;;6215906;23;20072;-75
2022/12/07 11:48:35;;;;;;;2.63;0.85;;;5.90;99.90;;;;;;6215655;23;20062;-75
2022/12/07 11:51:04;;;;;;;5.30;0.88;;;6.10;99.90;;;;;;6217737;23;20282;-75
2022/12/07 11:53:41;;;;;;;6.53;1.95;;;6.20;99.90;;;;;;6216405;23;20020;-74
2022/12/07 11:56:20;;;;;;;3.50;0.90;;;6.20;99.90;;;;;;6217007;23;20008;-74
2022/12/07 11:59:17;;;;;;;4.25;1.40;;;6.10;99.90;;;;;;6190040;23;20012;-74
2022/12/07 12:01:52;;;;;;;4.93;1.10;;;6.10;99.90;;;;;;6216579;23;20024;-74
2022/12/07 12:04:42;;;;;;;3.15;0.80;;;6.00;99.90;;;;;;6216329;23;20357;-74
2022/12/07 12:07:14;;;;;;;11.13;1.45;;;6.00;99.90;;;;;;6214961;23;20021;-75
2022/12/07 12:10:02;;;;;;;2.33;1.08;;;6.00;99.90;;;;;;6216206;23;20019;-74
2022/12/07 12:12:37;;;;;;;6.90;1.27;;;5.90;99.90;;;;;;6216671;23;20297;-75
2022/12/07 12:15:09;;;;;;;;;;;5.80;99.90;;;;;;6217198;23;20008;-74
2022/12/07 12:17:38;;;;;;;3.72;0.80;;;5.70;99.90;;;;;;6213904;23;19916;-74
2022/12/07 12:20:30;;;;;;;4.35;1.83;;;5.70;99.90;;;;;;6216666;23;20021;-74
2022/12/07 12:22:59;;;;;;;6.28;1.40;;;5.60;99.90;;;;;;6192081;23;20066;-73
2022/12/07 12:25:29;;;;;;;5.78;0.95;;;5.50;99.90;;;;;;6216065;23;20043;-73
2022/12/07 12:27:58;;;;;;;8.23;1.02;;;5.50;99.90;;;;;;6215598;23;20028;-74
2022/12/07 12:30:37;;;;;;;6.72;0.95;;;5.50;99.90;;;;;;6217100;23;20016;-74
2022/12/07 12:33:13;;;;;;;5.07;0.98;;;5.50;99.90;;;;;;6192244;23;20059;-73
2022/12/07 12:35:39;;;;;;;3.65;1.25;;;5.50;99.90;;;;;;6215841;23;20201;-72
2022/12/07 12:38:48;;;;;;;9.05;3.13;;;5.50;99.90;;;;;;6165443;23;20023;-73
2022/12/07 12:42:05;;;;;;;8.98;1.50;;;5.40;99.90;;;;;;6215459;23;20344;-73
2022/12/07 12:44:22;;;;;;;4.25;1.05;;;5.50;99.90;;;;;;6215060;23;20021;-74
2022/12/07 12:46:52;;;;;;;3.97;1.23;;;5.50;99.90;;;;;;6188881;23;20058;-72
2022/12/07 12:49:21;;;;;;;6.10;1.27;;;5.50;99.90;;;;;;6189569;23;20021;-72
2022/12/07 12:51:54;;;;;;;5.65;1.40;;;5.60;99.90;;;;;;6216734;23;20017;-73
2022/12/07 12:54:27;;;;;;;5.10;0.88;;;5.60;99.90;;;;;;6216986;23;20075;-72
2022/12/07 12:57:08;;;;;;;8.80;1.95;;;5.60;99.90;;;;;;6213409;23;20024;-72
2022/12/07 12:59:42;;;;;;;3.78;0.90;;;5.60;99.90;;;;;;6215519;23;20479;-72
2022/12/07 13:02:25;;;;;;;4.90;0.80;;;5.60;99.90;;;;;;6217094;23;20268;-73
2022/12/07 13:05:17;;;;;;;7.00;1.42;;;5.50;99.90;;;;;;6216239;23;20258;-73
2022/12/07 13:07:52;;;;;;;5.22;1.15;;;5.50;99.90;;;;;;6188056;23;20327;-73
2022/12/07 13:10:24;;;;;;;4.45;1.20;;;5.40;99.90;;;;;;6215743;23;20063;-72
2022/12/07 13:13:14;;;;;;;8.85;1.10;;;5.40;99.90;;;;;;6191896;23;20017;-73
2022/12/07 13:15:50;;;;;;;6.15;0.90;;;5.40;99.90;;;;;;6214131;23;20055;-71
2022/12/07 13:18:28;;;;;;;6.30;1.48;;;5.30;99.90;;;;;;6214051;23;20031;-73
2022/12/07 13:21:07;;;;;;;2.03;0.68;;;5.30;99.90;;;;;;6215290;23;20016;-74
2022/12/07 13:23:42;;;;;;;7.00;0.95;;;5.30;99.90;;;;;;6214655;23;20099;-73